createdAt,value
2018-02-08T00:14:37.307Z,51.2
2018-02-08T00:31:24.046Z,50.8
2018-02-08T00:48:10.397Z,50.4
2018-02-08T01:04:56.435Z,50.0
2018-02-08T01:21:42.480Z,50.0
2018-02-08T01:38:28.391Z,48.0
2018-02-08T01:55:14.633Z,48.0
2018-02-08T02:12:00.422Z,48.0
2018-02-08T02:28:46.443Z,48.0
2018-02-08T02:45:32.617Z,48.0
2018-02-08T03:02:18.353Z,48.0
2018-02-08T03:19:03.871Z,48.0
2018-02-08T03:35:49.631Z,48.0
2018-02-08T03:52:35.465Z,48.0
2018-02-08T04:09:20.941Z,48.0
2018-02-08T04:26:07.675Z,48.0
2018-02-08T04:42:52.510Z,48.0
2018-02-08T04:59:38.514Z,48.0
2018-02-08T05:16:24.209Z,48.4
2018-02-08T05:33:09.863Z,48.4
2018-02-08T05:49:54.831Z,48.4
2018-02-08T06:06:40.235Z,48.4
2018-02-08T06:23:26.910Z,48.4
2018-02-08T06:40:11.692Z,48.4
2018-02-08T06:56:57.068Z,48.4
2018-02-08T07:13:42.879Z,48.4
2018-02-08T07:30:28.836Z,48.4
2018-02-08T07:47:14.435Z,48.8
2018-02-08T08:04:01.385Z,48.8
2018-02-08T08:20:45.949Z,48.8
2018-02-08T08:37:31.946Z,49.2
2018-02-08T08:54:17.242Z,49.2
2018-02-08T09:11:03.237Z,49.2
2018-02-08T09:27:49.852Z,49.2
2018-02-08T09:44:36.293Z,49.2
2018-02-08T10:01:23.346Z,49.2
2018-02-08T10:18:09.782Z,49.2
2018-02-08T10:34:57.244Z,49.2
2018-02-08T10:51:43.318Z,49.2
2018-02-08T11:08:30.412Z,49.6
2018-02-08T11:25:18.184Z,49.6
2018-02-08T11:42:05.067Z,49.2
2018-02-08T11:58:52.736Z,49.2
2018-02-08T12:15:41.064Z,49.2
2018-02-08T12:32:28.828Z,49.2
2018-02-08T12:49:17.078Z,49.2
2018-02-08T13:06:04.106Z,49.2
2018-02-08T13:22:51.934Z,49.2
2018-02-08T13:39:40.231Z,48.8
2018-02-08T13:56:27.566Z,49.6
2018-02-08T14:13:15.751Z,49.6
2018-02-08T14:30:03.802Z,49.6
2018-02-08T14:46:51.994Z,48.8
2018-02-08T15:03:39.985Z,47.2
2018-02-08T15:20:27.816Z,46.8
2018-02-08T15:37:15.503Z,47.6
2018-02-08T15:54:03.209Z,47.6
2018-02-08T16:10:50.901Z,48.0
2018-02-08T16:27:38.603Z,48.4
2018-02-08T16:44:27.195Z,48.4
2018-02-08T17:01:13.990Z,48.4
2018-02-08T17:18:01.744Z,48.8
2018-02-08T17:34:49.422Z,48.8
2018-02-08T17:51:37.208Z,49.6
2018-02-08T18:08:24.993Z,49.6
2018-02-08T18:25:12.722Z,49.6
2018-02-08T18:42:00.118Z,49.6
2018-02-08T18:58:47.162Z,49.6
2018-02-08T19:15:34.037Z,49.6
2018-02-08T19:32:20.980Z,49.6
2018-02-08T19:49:07.722Z,48.8
2018-02-08T20:05:54.637Z,49.6
2018-02-08T20:22:42.085Z,49.6
2018-02-08T20:39:28.476Z,48.8
2018-02-08T20:56:15.366Z,48.8
2018-02-08T21:13:02.312Z,48.8
2018-02-08T21:29:49.152Z,48.8
2018-02-08T21:46:36.079Z,48.8
2018-02-08T22:03:22.909Z,48.4
2018-02-08T22:20:09.684Z,48.4
2018-02-08T22:36:56.487Z,48.4
2018-02-08T22:53:43.359Z,48.4
2018-02-08T23:10:30.082Z,48.4
2018-02-08T23:27:16.928Z,48.4
2018-02-08T23:44:03.527Z,48.4
